Time;durP1;ratioP1;P1;durP2;ratioP2;P2;SDS_P1;SDS_P2;PMS_P1;PMS_P2;Temp;Humidity;BMP_temperature;BMP_pressure;BME280_temperature;BME280_humidity;BME280_pressure;Samples;Min_cycle;Max_cycle;Signal;HPM_P1;HPM_P2
2023/04/24 00:01:39;;;;;;;;;;;;;;;;;;4916245;29;19968;-90
2023/04/24 00:04:06;;;;;;;;;;;;;;;;;;4903654;29;19980;-89
2023/04/24 00:06:34;;;;;;;;;;;;;;;;;;4868756;29;19916;-88
2023/04/24 00:09:00;;;;;;;;;;;;;;;;;;4895145;29;19939;-90
2023/04/24 00:11:25;;;;;;;;;;;;;;;;;;4867861;29;19916;-90
2023/04/24 00:13:51;;;;;;;;;;;;;;;;;;4877244;29;19999;-88
2023/04/24 00:16:16;;;;;;;;;;;;;;;;;;4886086;29;19924;-88
2023/04/24 00:18:41;;;;;;;;;;;;;;;;;;4912767;29;20709;-88
2023/04/24 00:21:07;;;;;;;;;;;;;;;;;;4889889;29;19915;-90
2023/04/24 00:23:32;;;;;;;;;;;;;;;;;;4876989;29;20007;-90
2023/04/24 00:25:58;;;;;;;;;;;;;;;;;;4879562;29;19935;-89
2023/04/24 00:28:23;;;;;;;;;;;;;;;;;;4885747;29;20006;-90
2023/04/24 00:30:48;;;;;;;;;;;;;;;;;;4883311;29;19947;-90
2023/04/24 00:33:14;;;;;;;;;;;;;;;;;;4893443;29;19923;-89
2023/04/24 00:35:40;;;;;;;;;;;;;;;;;;4870516;29;19961;-88
2023/04/24 00:38:06;;;;;;;;;;;;;;;;;;4888806;29;19971;-90
2023/04/24 00:40:31;;;;;;;;;;;;;;;;;;4885711;29;19999;-91
2023/04/24 00:42:56;;;;;;;;;;;;;;;;;;4897097;29;19916;-90
2023/04/24 00:45:22;;;;;;;;;;;;;;;;;;4892345;29;19923;-91
2023/04/24 00:47:47;;;;;;;;;;;;;;;;;;4907393;29;19915;-90
2023/04/24 00:50:13;;;;;;;;;;;;;;;;;;4889322;29;19916;-89
2023/04/24 00:52:40;;;;;;;;;;;;;;;;;;4919877;28;19907;-91
2023/04/24 00:55:05;;;;;;;;;;;;;;;;;;4917783;29;19908;-91
2023/04/24 00:57:31;;;;;;;;;;;;;;;;;;4912877;28;19915;-86
2023/04/24 00:59:56;;;;;;;;;;;;;;;;;;4910355;29;19920;-88
2023/04/24 01:02:22;;;;;;;;;;;;;;;;;;4921930;29;19971;-87
2023/04/24 01:04:48;;;;;;;;;;;;;;;;;;4877758;29;19915;-86
2023/04/24 01:07:13;;;;;;;;;;;;;;;;;;4907910;29;20197;-91
2023/04/24 01:09:38;;;;;;;;;;;;;;;;;;4867528;29;19967;-92
2023/04/24 01:12:04;;;;;;;;;;;;;;;;;;4883724;29;19976;-93
2023/04/24 01:16:57;;;;;;;;;;;;;;;;;;4910396;29;19927;-84
2023/04/24 01:19:22;;;;;;;;;;;;;;;;;;4890064;29;19915;-84
2023/04/24 01:21:48;;;;;;;;;;;;;;;;;;4901124;29;19915;-83
2023/04/24 01:24:13;;;;;;;;;;;;;;;;;;4917748;29;19998;-85
2023/04/24 01:26:38;;;;;;;;;;;;;;;;;;4916509;29;19922;-86
2023/04/24 01:29:04;;;;;;;;;;;;;;;;;;4916448;29;19922;-85
2023/04/24 01:31:29;;;;;;;;;;;;;;;;;;4903621;29;19955;-84
2023/04/24 01:33:55;;;;;;;;;;;;;;;;;;4910509;29;20064;-85
2023/04/24 01:36:20;;;;;;;;;;;;;;;;;;4916062;29;19919;-83
2023/04/24 01:38:46;;;;;;;;;;;;;;;;;;4897401;29;19926;-86
2023/04/24 01:41:11;;;;;;;;;;;;;;;;;;4900983;29;19990;-85
2023/04/24 01:43:36;;;;;;;;;;;;;;;;;;4916081;29;20367;-84
2023/04/24 01:46:02;;;;;;;;;;;;;;;;;;4917286;29;20371;-86
2023/04/24 01:48:27;;;;;;;;;;;;;;;;;;4916651;29;19920;-86
2023/04/24 01:50:53;;;;;;;;;;;;;;;;;;4915574;29;19915;-83
2023/04/24 01:53:18;;;;;;;;;;;;;;;;;;4916118;29;19922;-87
2023/04/24 01:55:44;;;;;;;;;;;;;;;;;;4915340;29;19915;-87
2023/04/24 01:58:11;;;;;;;;;;;;;;;;;;4901119;29;20014;-85
2023/04/24 02:00:37;;;;;;;;;;;;;;;;;;4915260;29;20410;-85
2023/04/24 02:03:02;;;;;;;;;;;;;;;;;;4915559;29;19971;-83
2023/04/24 02:05:28;;;;;;;;;;;;;;;;;;4928777;29;19915;-84
2023/04/24 02:07:54;;;;;;;;;;;;;;;;;;4917847;29;19915;-84
2023/04/24 02:10:20;;;;;;;;;;;;;;;;;;4917234;29;20469;-84
2023/04/24 02:12:45;;;;;;;;;;;;;;;;;;4915241;29;19919;-83
2023/04/24 02:15:10;;;;;;;;;;;;;;;;;;4916278;29;20395;-85
2023/04/24 02:17:36;;;;;;;;;;;;;;;;;;4915462;29;19919;-85
2023/04/24 02:20:03;;;;;;;;;;;;;;;;;;4916493;29;19915;-83
2023/04/24 02:22:28;;;;;;;;;;;;;;;;;;4917983;29;19915;-84
2023/04/24 02:24:54;;;;;;;;;;;;;;;;;;4915294;29;19921;-86
2023/04/24 02:27:19;;;;;;;;;;;;;;;;;;4915115;29;19916;-86
2023/04/24 02:29:45;;;;;;;;;;;;;;;;;;4923068;29;20009;-84
2023/04/24 02:32:11;;;;;;;;;;;;;;;;;;4916756;29;20382;-82
2023/04/24 02:34:37;;;;;;;;;;;;;;;;;;4898003;29;19963;-85
2023/04/24 02:37:02;;;;;;;;;;;;;;;;;;4915045;29;20340;-87
2023/04/24 02:39:28;;;;;;;;;;;;;;;;;;4896018;29;20022;-85
2023/04/24 02:41:53;;;;;;;;;;;;;;;;;;4889467;29;19916;-85
2023/04/24 02:44:18;;;;;;;;;;;;;;;;;;4912170;29;19915;-83
2023/04/24 02:46:44;;;;;;;;;;;;;;;;;;4899556;29;19938;-86
2023/04/24 02:49:11;;;;;;;;;;;;;;;;;;4919282;29;19922;-86
2023/04/24 02:51:40;;;;;;;;;;;;;;;;;;4911935;29;20339;-84
2023/04/24 02:54:05;;;;;;;;;;;;;;;;;;4910052;29;19922;-84
2023/04/24 02:56:31;;;;;;;;;;;;;;;;;;4914740;29;19923;-84
2023/04/24 02:58:58;;;;;;;;;;;;;;;;;;4881886;29;19942;-85
2023/04/24 03:01:23;;;;;;;;;;;;;;;;;;4917469;29;20379;-83
2023/04/24 03:03:49;;;;;;;;;;;;;;;;;;4908527;29;19922;-85
2023/04/24 03:06:15;;;;;;;;;;;;;;;;;;4922619;29;20195;-86
2023/04/24 03:08:40;;;;;;;;;;;;;;;;;;4918703;29;20477;-86
2023/04/24 03:11:06;;;;;;;;;;;;;;;;;;4918399;29;19958;-87
2023/04/24 03:13:31;;;;;;;;;;;;;;;;;;4919801;29;20336;-84
2023/04/24 03:15:57;;;;;;;;;;;;;;;;;;4922108;29;20002;-83
2023/04/24 03:18:22;;;;;;;;;;;;;;;;;;4921824;29;20304;-83
2023/04/24 03:20:49;;;;;;;;;;;;;;;;;;4918694;29;19938;-86
2023/04/24 03:23:15;;;;;;;;;;;;;;;;;;4918653;29;20377;-86
2023/04/24 03:25:42;;;;;;;;;;;;;;;;;;4908141;29;19954;-85
2023/04/24 03:28:08;;;;;;;;;;;;;;;;;;4918643;29;19919;-86
2023/04/24 03:30:38;;;;;;;;;;;;;;;;;;4887622;29;20015;-84
2023/04/24 03:33:04;;;;;;;;;;;;;;;;;;4900255;29;19967;-84
2023/04/24 03:35:36;;;;;;;;;;;;;;;;;;4908564;29;20276;-85
2023/04/24 03:38:06;;;;;;;;;;;;;;;;;;4910127;29;19927;-87
2023/04/24 03:40:41;;;;;;;;;;;;;;;;;;4919592;29;20421;-84
2023/04/24 03:43:20;;;;;;;;;;;;;;;;;;4890989;29;19915;-87
2023/04/24 03:45:45;;;;;;;;;;;;;;;;;;4920097;29;20406;-85
2023/04/24 03:48:12;;;;;;;;;;;;;;;;;;4912030;29;19954;-85
2023/04/24 03:50:37;;;;;;;;;;;;;;;;;;4932874;29;19916;-84
2023/04/24 03:53:03;;;;;;;;;;;;;;;;;;4936995;29;19938;-83
2023/04/24 03:55:35;;;;;;;;;;;;;;;;;;4937207;29;19915;-86
2023/04/24 03:58:00;;;;;;;;;;;;;;;;;;4938120;29;19982;-86
2023/04/24 04:00:26;;;;;;;;;;;;;;;;;;4936832;29;19911;-84
2023/04/24 04:03:05;;;;;;;;;;;;;;;;;;4922698;29;20148;-83
2023/04/24 04:05:30;;;;;;;;;;;;;;;;;;4927188;29;19919;-87
2023/04/24 04:07:56;;;;;;;;;;;;;;;;;;4913926;29;19912;-87
2023/04/24 04:10:21;;;;;;;;;;;;;;;;;;4922037;29;19915;-85
2023/04/24 04:12:47;;;;;;;;;;;;;;;;;;4921585;29;19919;-87
2023/04/24 04:15:12;;;;;;;;;;;;;;;;;;4912204;29;20348;-86
2023/04/24 04:17:38;;;;;;;;;;;;;;;;;;4913596;29;19926;-87
2023/04/24 04:20:11;;;;;;;;;;;;;;;;;;4902158;29;19915;-87
2023/04/24 04:22:38;;;;;;;;;;;;;;;;;;4917899;29;19915;-84
2023/04/24 04:25:07;;;;;;;;;;;;;;;;;;4917543;29;20375;-86
2023/04/24 04:27:33;;;;;;;;;;;;;;;;;;4927684;29;20394;-85
2023/04/24 04:30:04;;;;;;;;;;;;;;;;;;4917834;29;19915;-86
2023/04/24 04:32:35;;;;;;;;;;;;;;;;;;4918864;29;20006;-86
2023/04/24 04:35:02;;;;;;;;;;;;;;;;;;4916814;29;20363;-86
2023/04/24 04:37:29;;;;;;;;;;;;;;;;;;4917044;29;19923;-86
2023/04/24 04:40:11;;;;;;;;;;;;;;;;;;4892631;29;19915;-86
2023/04/24 04:42:40;;;;;;;;;;;;;;;;;;4899293;29;20009;-86
2023/04/24 04:45:05;;;;;;;;;;;;;;;;;;4916991;29;20018;-87
2023/04/24 04:47:41;;;;;;;;;;;;;;;;;;4906772;29;19915;-87
2023/04/24 04:50:07;;;;;;;;;;;;;;;;;;4913885;29;20398;-87
2023/04/24 04:52:33;;;;;;;;;;;;;;;;;;4916602;29;19922;-85
2023/04/24 04:55:20;;;;;;;;;;;;;;;;;;4916774;29;19922;-87
2023/04/24 04:58:04;;;;;;;;;;;;;;;;;;4903772;29;19955;-86
2023/04/24 05:00:35;;;;;;;;;;;;;;;;;;4901202;29;19923;-86
2023/04/24 05:03:00;;;;;;;;;;;;;;;;;;4916991;29;19919;-86
2023/04/24 05:05:26;;;;;;;;;;;;;;;;;;4901446;29;19921;-87
2023/04/24 05:07:51;;;;;;;;;;;;;;;;;;4907529;29;19987;-85
2023/04/24 05:10:17;;;;;;;;;;;;;;;;;;4912901;29;20443;-85
2023/04/24 05:12:42;;;;;;;;;;;;;;;;;;4901100;29;20343;-85
2023/04/24 05:15:07;;;;;;;;;;;;;;;;;;4932401;29;19915;-85
2023/04/24 05:17:33;;;;;;;;;;;;;;;;;;4907312;29;20002;-87
2023/04/24 05:19:58;;;;;;;;;;;;;;;;;;4916440;29;19915;-84
2023/04/24 05:22:24;;;;;;;;;;;;;;;;;;4901417;29;19922;-86
2023/04/24 05:24:51;;;;;;;;;;;;;;;;;;4931542;29;19916;-86
2023/04/24 05:27:36;;;;;;;;;;;;;;;;;;4916659;29;19915;-83
2023/04/24 05:30:07;;;;;;;;;;;;;;;;;;4917615;29;19923;-85
2023/04/24 05:32:33;;;;;;;;;;;;;;;;;;4887045;29;19915;-86
2023/04/24 05:34:58;;;;;;;;;;;;;;;;;;4912144;29;19963;-84
2023/04/24 05:37:24;;;;;;;;;;;;;;;;;;4903294;29;19966;-85
2023/04/24 05:39:50;;;;;;;;;;;;;;;;;;4911187;29;19915;-84
2023/04/24 05:42:15;;;;;;;;;;;;;;;;;;4896739;29;20287;-82
2023/04/24 05:44:41;;;;;;;;;;;;;;;;;;4920936;29;19916;-85
2023/04/24 05:47:06;;;;;;;;;;;;;;;;;;4916563;29;19916;-86
2023/04/24 05:49:31;;;;;;;;;;;;;;;;;;4897931;29;19916;-84
2023/04/24 05:51:57;;;;;;;;;;;;;;;;;;4902220;29;20364;-83
2023/04/24 05:54:22;;;;;;;;;;;;;;;;;;4896009;29;20360;-85
2023/04/24 05:56:48;;;;;;;;;;;;;;;;;;4901728;29;19954;-84
2023/04/24 05:59:20;;;;;;;;;;;;;;;;;;4926844;29;19950;-81
2023/04/24 06:01:45;;;;;;;;;;;;;;;;;;4925865;29;19922;-84
2023/04/24 06:04:15;;;;;;;;;;;;;;;;;;4923080;29;19916;-81
2023/04/24 06:06:41;;;;;;;;;;;;;;;;;;4928957;29;19919;-83
2023/04/24 06:09:07;;;;;;;;;;;;;;;;;;4894225;29;19915;-83
2023/04/24 06:11:33;;;;;;;;;;;;;;;;;;4921090;29;19922;-83
2023/04/24 06:13:58;;;;;;;;;;;;;;;;;;4897557;29;19915;-84
2023/04/24 06:16:56;;;;;;;;;;;;;;;;;;4901958;29;19919;-85
2023/04/24 06:19:30;;;;;;;;;;;;;;;;;;4916271;29;20113;-85
2023/04/24 06:21:56;;;;;;;;;;;;;;;;;;4897734;29;20439;-85
2023/04/24 06:24:21;;;;;;;;;;;;;;;;;;4881010;29;19951;-84
2023/04/24 06:26:47;;;;;;;;;;;;;;;;;;4915022;29;19919;-86
2023/04/24 06:29:12;;;;;;;;;;;;;;;;;;4916745;29;19937;-86
2023/04/24 06:31:37;;;;;;;;;;;;;;;;;;4916219;29;19915;-85
2023/04/24 06:34:03;;;;;;;;;;;;;;;;;;4916535;29;19915;-84
2023/04/24 06:36:28;;;;;;;;;;;;;;;;;;4917481;29;19995;-85
2023/04/24 06:38:54;;;;;;;;;;;;;;;;;;4917461;29;19974;-84
2023/04/24 06:41:19;;;;;;;;;;;;;;;;;;4905497;29;19923;-84
2023/04/24 06:43:45;;;;;;;;;;;;;;;;;;4905513;29;19915;-85
2023/04/24 06:46:10;;;;;;;;;;;;;;;;;;4919013;29;19919;-84
2023/04/24 06:48:35;;;;;;;;;;;;;;;;;;4921323;29;19916;-83
2023/04/24 06:51:01;;;;;;;;;;;;;;;;;;4907755;29;19916;-85
2023/04/24 06:53:27;;;;;;;;;;;;;;;;;;4930326;29;19915;-85
2023/04/24 06:55:52;;;;;;;;;;;;;;;;;;4934352;29;19935;-84
2023/04/24 06:58:18;;;;;;;;;;;;;;;;;;4936314;29;19927;-85
2023/04/24 07:00:43;;;;;;;;;;;;;;;;;;4935073;29;19922;-82
2023/04/24 07:03:08;;;;;;;;;;;;;;;;;;4917782;29;19915;-83
2023/04/24 07:05:35;;;;;;;;;;;;;;;;;;4936590;29;19916;-83
2023/04/24 07:08:00;;;;;;;;;;;;;;;;;;4927853;29;19961;-85
2023/04/24 07:10:28;;;;;;;;;;;;;;;;;;4920924;29;19915;-86
2023/04/24 07:12:53;;;;;;;;;;;;;;;;;;4922834;29;19915;-86
2023/04/24 07:15:19;;;;;;;;;;;;;;;;;;4923102;29;20296;-87
2023/04/24 07:17:45;;;;;;;;;;;;;;;;;;4935312;23;19946;-91
2023/04/24 07:20:10;;;;;;;;;;;;;;;;;;4906714;29;19916;-94
2023/04/24 07:22:35;;;;;;;;;;;;;;;;;;4904076;29;20296;-91
2023/04/24 07:25:01;;;;;;;;;;;;;;;;;;4875658;29;20009;-91
2023/04/24 07:27:26;;;;;;;;;;;;;;;;;;4921882;29;19951;-91
2023/04/24 07:29:52;;;;;;;;;;;;;;;;;;4905080;29;19915;-91
2023/04/24 07:32:17;;;;;;;;;;;;;;;;;;4905629;29;19967;-91
2023/04/24 07:34:42;;;;;;;;;;;;;;;;;;4885905;29;19971;-90
2023/04/24 07:37:08;;;;;;;;;;;;;;;;;;4892188;29;19911;-89
2023/04/24 07:39:34;;;;;;;;;;;;;;;;;;4907364;29;19927;-93
2023/04/24 07:41:59;;;;;;;;;;;;;;;;;;4901176;29;19916;-93
2023/04/24 07:44:25;;;;;;;;;;;;;;;;;;4886558;29;19952;-92
2023/04/24 07:46:50;;;;;;;;;;;;;;;;;;4919254;29;19915;-91
2023/04/24 07:49:16;;;;;;;;;;;;;;;;;;4889403;29;19982;-92
2023/04/24 07:51:41;;;;;;;;;;;;;;;;;;4916207;29;20364;-91
2023/04/24 07:54:06;;;;;;;;;;;;;;;;;;4898273;29;19922;-91
2023/04/24 07:56:32;;;;;;;;;;;;;;;;;;4902983;29;19919;-92
2023/04/24 07:58:58;;;;;;;;;;;;;;;;;;4898796;29;19920;-93
2023/04/24 08:01:23;;;;;;;;;;;;;;;;;;4908266;29;19991;-94
2023/04/24 08:03:49;;;;;;;;;;;;;;;;;;4892070;29;20384;-93
2023/04/24 08:06:14;;;;;;;;;;;;;;;;;;4914562;29;19982;-93
2023/04/24 08:08:39;;;;;;;;;;;;;;;;;;4903812;29;20391;-92
2023/04/24 08:11:05;;;;;;;;;;;;;;;;;;4901743;29;19915;-93
2023/04/24 08:13:30;;;;;;;;;;;;;;;;;;4909444;29;20396;-92
2023/04/24 08:15:55;;;;;;;;;;;;;;;;;;4908597;29;19966;-93
2023/04/24 08:18:21;;;;;;;;;;;;;;;;;;4920803;29;19958;-91
2023/04/24 08:20:46;;;;;;;;;;;;;;;;;;4926324;29;19906;-91
2023/04/24 08:23:12;;;;;;;;;;;;;;;;;;4922528;29;20380;-92
2023/04/24 08:25:37;;;;;;;;;;;;;;;;;;4935610;29;19939;-93
2023/04/24 08:28:03;;;;;;;;;;;;;;;;;;4927001;29;19927;-93
2023/04/24 08:30:29;;;;;;;;;;;;;;;;;;4915371;29;19923;-93
2023/04/24 08:32:54;;;;;;;;;;;;;;;;;;4910120;29;19916;-91
2023/04/24 08:35:20;;;;;;;;;;;;;;;;;;4880189;29;19931;-92
2023/04/24 08:37:45;;;;;;;;;;;;;;;;;;4879745;29;19967;-90
2023/04/24 08:40:11;;;;;;;;;;;;;;;;;;4895352;29;19915;-90
2023/04/24 08:42:36;;;;;;;;;;;;;;;;;;4928891;29;19916;-89
2023/04/24 08:45:02;;;;;;;;;;;;;;;;;;4916578;29;19915;-92
2023/04/24 08:47:27;;;;;;;;;;;;;;;;;;4922119;29;19922;-91
2023/04/24 08:49:53;;;;;;;;;;;;;;;;;;4906473;29;19939;-93
2023/04/24 08:52:19;;;;;;;;;;;;;;;;;;4919955;29;19927;-92
2023/04/24 08:54:46;;;;;;;;;;;;;;;;;;4909467;29;19939;-91
2023/04/24 08:57:11;;;;;;;;;;;;;;;;;;4893132;29;19915;-91
2023/04/24 08:59:37;;;;;;;;;;;;;;;;;;4895611;29;19926;-92
2023/04/24 09:02:02;;;;;;;;;;;;;;;;;;4913346;29;20380;-93
2023/04/24 09:04:27;;;;;;;;;;;;;;;;;;4901866;29;20344;-92
2023/04/24 09:06:53;;;;;;;;;;;;;;;;;;4899166;29;19943;-90
2023/04/24 09:09:18;;;;;;;;;;;;;;;;;;4891509;29;20488;-93
2023/04/24 09:11:44;;;;;;;;;;;;;;;;;;4893175;29;19915;-90
2023/04/24 09:14:09;;;;;;;;;;;;;;;;;;4914108;29;20003;-89
2023/04/24 09:16:35;;;;;;;;;;;;;;;;;;4885100;29;19915;-92
2023/04/24 09:19:00;;;;;;;;;;;;;;;;;;4904394;29;19919;-90
2023/04/24 09:21:25;;;;;;;;;;;;;;;;;;4918288;29;19963;-92
2023/04/24 09:23:51;;;;;;;;;;;;;;;;;;4891872;29;19923;-90
2023/04/24 09:26:16;;;;;;;;;;;;;;;;;;4926219;29;19923;-91
2023/04/24 09:28:42;;;;;;;;;;;;;;;;;;4901812;29;19919;-90
2023/04/24 09:31:07;;;;;;;;;;;;;;;;;;4918206;29;20276;-89
2023/04/24 09:33:33;;;;;;;;;;;;;;;;;;4886571;29;19923;-91
2023/04/24 09:35:59;;;;;;;;;;;;;;;;;;4907171;29;19911;-92
2023/04/24 09:38:24;;;;;;;;;;;;;;;;;;4871172;29;19950;-90
2023/04/24 09:40:49;;;;;;;;;;;;;;;;;;4899721;29;19943;-90
2023/04/24 09:43:15;;;;;;;;;;;;;;;;;;4915288;29;19921;-90
2023/04/24 09:45:40;;;;;;;;;;;;;;;;;;4910437;29;19921;-91
2023/04/24 09:48:07;;;;;;;;;;;;;;;;;;4895958;29;19916;-90
2023/04/24 09:50:34;;;;;;;;;;;;;;;;;;4923767;29;19949;-90
2023/04/24 09:52:59;;;;;;;;;;;;;;;;;;4918199;29;19926;-90
2023/04/24 09:55:25;;;;;;;;;;;;;;;;;;4921597;29;20185;-91
2023/04/24 09:57:51;;;;;;;;;;;;;;;;;;4914670;29;19919;-88
2023/04/24 10:00:16;;;;;;;;;;;;;;;;;;4932179;29;19911;-91
2023/04/24 10:02:42;;;;;;;;;;;;;;;;;;4938911;28;19926;-88
2023/04/24 10:05:07;;;;;;;;;;;;;;;;;;4923532;28;19918;-88
2023/04/24 10:07:33;;;;;;;;;;;;;;;;;;4931033;28;19939;-88
2023/04/24 10:09:58;;;;;;;;;;;;;;;;;;4933658;29;19907;-87
2023/04/24 10:12:24;;;;;;;;;;;;;;;;;;4907638;29;19931;-90
2023/04/24 10:14:50;;;;;;;;;;;;;;;;;;4929960;29;19931;-91
2023/04/24 10:17:15;;;;;;;;;;;;;;;;;;4902214;29;20130;-90
2023/04/24 10:19:41;;;;;;;;;;;;;;;;;;4898480;29;19920;-91
2023/04/24 10:22:06;;;;;;;;;;;;;;;;;;4898484;29;20418;-91
2023/04/24 10:24:31;;;;;;;;;;;;;;;;;;4904772;29;19915;-93
2023/04/24 10:26:57;;;;;;;;;;;;;;;;;;4919883;29;19942;-91
2023/04/24 10:29:22;;;;;;;;;;;;;;;;;;4920373;29;19916;-89
2023/04/24 10:31:48;;;;;;;;;;;;;;;;;;4902067;29;19940;-92
2023/04/24 10:34:13;;;;;;;;;;;;;;;;;;4918668;29;19930;-91
2023/04/24 10:36:39;;;;;;;;;;;;;;;;;;4914419;29;19921;-92
2023/04/24 10:39:04;;;;;;;;;;;;;;;;;;4902592;29;19919;-85
2023/04/24 10:41:29;;;;;;;;;;;;;;;;;;4891417;29;20337;-86
2023/04/24 10:43:55;;;;;;;;;;;;;;;;;;4897172;29;20375;-88
2023/04/24 10:46:23;;;;;;;;;;;;;;;;;;4913033;29;19915;-86
2023/04/24 10:48:48;;;;;;;;;;;;;;;;;;4899514;29;20362;-87
2023/04/24 10:51:14;;;;;;;;;;;;;;;;;;4910875;29;20375;-88
2023/04/24 10:53:39;;;;;;;;;;;;;;;;;;4911880;29;19915;-86
2023/04/24 10:56:05;;;;;;;;;;;;;;;;;;4920184;29;19926;-85
2023/04/24 10:58:30;;;;;;;;;;;;;;;;;;4908293;29;19919;-88
2023/04/24 11:00:56;;;;;;;;;;;;;;;;;;4913810;29;19915;-87
2023/04/24 11:03:21;;;;;;;;;;;;;;;;;;4919241;29;19915;-88
2023/04/24 11:05:47;;;;;;;;;;;;;;;;;;4926403;29;19918;-86
2023/04/24 11:08:13;;;;;;;;;;;;;;;;;;4902015;29;20283;-85
2023/04/24 11:10:38;;;;;;;;;;;;;;;;;;4922594;29;19962;-78
2023/04/24 11:13:03;;;;;;;;;;;;;;;;;;4893335;29;19925;-77
2023/04/24 11:15:29;;;;;;;;;;;;;;;;;;4905858;29;19926;-78
2023/04/24 11:17:54;;;;;;;;;;;;;;;;;;4908283;29;19962;-79
2023/04/24 11:20:20;;;;;;;;;;;;;;;;;;4906029;29;19919;-81
2023/04/24 11:22:45;;;;;;;;;;;;;;;;;;4904973;29;20379;-79
2023/04/24 11:25:11;;;;;;;;;;;;;;;;;;4889980;29;19970;-78
2023/04/24 11:27:37;;;;;;;;;;;;;;;;;;4892794;29;19915;-79
2023/04/24 11:30:02;;;;;;;;;;;;;;;;;;4906053;29;19922;-79
2023/04/24 11:32:30;;;;;;;;;;;;;;;;;;4903147;29;19921;-79
2023/04/24 11:34:56;;;;;;;;;;;;;;;;;;4900787;29;19916;-86
2023/04/24 11:37:21;;;;;;;;;;;;;;;;;;4906162;29;20375;-87
2023/04/24 11:39:47;;;;;;;;;;;;;;;;;;4886542;29;20201;-88
2023/04/24 11:42:12;;;;;;;;;;;;;;;;;;4902602;29;20435;-88
2023/04/24 11:44:37;;;;;;;;;;;;;;;;;;4929597;29;19958;-87
2023/04/24 11:47:03;;;;;;;;;;;;;;;;;;4891598;29;20383;-87
2023/04/24 11:49:28;;;;;;;;;;;;;;;;;;4915749;29;19935;-85
2023/04/24 11:51:54;;;;;;;;;;;;;;;;;;4908068;29;20380;-85
2023/04/24 11:54:19;;;;;;;;;;;;;;;;;;4909147;29;19915;-85
2023/04/24 11:56:45;;;;;;;;;;;;;;;;;;4907772;29;19948;-86
2023/04/24 11:59:10;;;;;;;;;;;;;;;;;;4914006;29;19927;-85
2023/04/24 12:01:35;;;;;;;;;;;;;;;;;;4913720;29;19915;-87
2023/04/24 12:04:01;;;;;;;;;;;;;;;;;;4905684;29;19915;-85
2023/04/24 12:06:26;;;;;;;;;;;;;;;;;;4931625;29;20295;-86
2023/04/24 12:08:52;;;;;;;;;;;;;;;;;;4928062;29;19915;-85
2023/04/24 12:11:18;;;;;;;;;;;;;;;;;;4910882;29;20381;-85
2023/04/24 12:13:43;;;;;;;;;;;;;;;;;;4909667;29;19919;-85
2023/04/24 12:16:09;;;;;;;;;;;;;;;;;;4913028;29;19941;-78
2023/04/24 12:18:34;;;;;;;;;;;;;;;;;;4910888;29;19919;-78
2023/04/24 12:21:00;;;;;;;;;;;;;;;;;;4903270;29;20328;-77
2023/04/24 12:23:25;;;;;;;;;;;;;;;;;;4909938;29;19915;-79
2023/04/24 12:25:50;;;;;;;;;;;;;;;;;;4899356;29;20323;-78
2023/04/24 12:28:16;;;;;;;;;;;;;;;;;;4913574;29;19922;-77
2023/04/24 12:30:41;;;;;;;;;;;;;;;;;;4914280;29;19915;-79
2023/04/24 12:33:07;;;;;;;;;;;;;;;;;;4909583;29;19916;-77
2023/04/24 12:35:33;;;;;;;;;;;;;;;;;;4908107;29;19923;-77
2023/04/24 12:37:58;;;;;;;;;;;;;;;;;;4904577;29;19919;-79
2023/04/24 12:40:24;;;;;;;;;;;;;;;;;;4914764;29;19926;-90
2023/04/24 12:42:49;;;;;;;;;;;;;;;;;;4903374;29;19938;-88
2023/04/24 12:45:15;;;;;;;;;;;;;;;;;;4913757;29;19915;-87
2023/04/24 12:47:40;;;;;;;;;;;;;;;;;;4894408;29;20379;-90
2023/04/24 12:50:06;;;;;;;;;;;;;;;;;;4907267;29;19920;-89
2023/04/24 12:52:31;;;;;;;;;;;;;;;;;;4903975;29;19962;-90
2023/04/24 12:54:56;;;;;;;;;;;;;;;;;;4891668;29;19937;-90
2023/04/24 12:57:22;;;;;;;;;;;;;;;;;;4915049;29;19915;-90
2023/04/24 12:59:47;;;;;;;;;;;;;;;;;;4916557;29;20406;-88
2023/04/24 13:02:13;;;;;;;;;;;;;;;;;;4933608;29;19919;-87
2023/04/24 13:04:38;;;;;;;;;;;;;;;;;;4905138;29;19923;-83
2023/04/24 13:07:04;;;;;;;;;;;;;;;;;;4889211;29;19903;-85
2023/04/24 13:09:29;;;;;;;;;;;;;;;;;;4910777;29;19918;-81
2023/04/24 13:11:56;;;;;;;;;;;;;;;;;;4904296;29;19914;-83
2023/04/24 13:14:21;;;;;;;;;;;;;;;;;;4929983;29;19967;-83
2023/04/24 13:19:23;;;;;;;;;;;;;;;;;;4930702;29;19963;-79
2023/04/24 13:21:49;;;;;;;;;;;;;;;;;;4929594;29;19922;-81
2023/04/24 13:24:15;;;;;;;;;;;;;;;;;;4920807;29;19911;-81
2023/04/24 13:26:41;;;;;;;;;;;;;;;;;;4934250;29;19915;-80
2023/04/24 13:29:06;;;;;;;;;;;;;;;;;;4917735;29;20018;-80
2023/04/24 13:31:31;;;;;;;;;;;;;;;;;;4910744;29;19922;-79
2023/04/24 13:33:57;;;;;;;;;;;;;;;;;;4928102;29;19923;-83
2023/04/24 13:36:22;;;;;;;;;;;;;;;;;;4936187;29;20346;-85
2023/04/24 13:38:48;;;;;;;;;;;;;;;;;;4904108;29;19925;-79
2023/04/24 13:41:13;;;;;;;;;;;;;;;;;;4928570;29;19915;-77
2023/04/24 13:43:41;;;;;;;;;;;;;;;;;;4920956;29;19922;-78
2023/04/24 13:46:06;;;;;;;;;;;;;;;;;;4935790;29;19946;-78
2023/04/24 13:48:32;;;;;;;;;;;;;;;;;;4934129;29;20279;-78
2023/04/24 13:50:57;;;;;;;;;;;;;;;;;;4921579;29;20415;-79
2023/04/24 13:53:23;;;;;;;;;;;;;;;;;;4926663;29;19979;-79
2023/04/24 13:55:48;;;;;;;;;;;;;;;;;;4910918;29;19915;-79
2023/04/24 13:58:14;;;;;;;;;;;;;;;;;;4931995;29;20013;-79
2023/04/24 14:00:40;;;;;;;;;;;;;;;;;;4932996;29;20379;-79
2023/04/24 14:03:05;;;;;;;;;;;;;;;;;;4922159;29;19921;-79
2023/04/24 14:05:31;;;;;;;;;;;;;;;;;;4905268;29;19962;-78
2023/04/24 14:07:56;;;;;;;;;;;;;;;;;;4928437;29;20347;-78
2023/04/24 14:10:22;;;;;;;;;;;;;;;;;;4919436;29;20363;-78
2023/04/24 14:12:47;;;;;;;;;;;;;;;;;;4902942;29;20005;-78
2023/04/24 14:15:13;;;;;;;;;;;;;;;;;;4935303;29;19915;-78
2023/04/24 14:17:38;;;;;;;;;;;;;;;;;;4913728;29;20381;-77
2023/04/24 14:20:04;;;;;;;;;;;;;;;;;;4934021;29;19926;-79
2023/04/24 14:22:30;;;;;;;;;;;;;;;;;;4934081;29;19922;-78
2023/04/24 14:24:55;;;;;;;;;;;;;;;;;;4916153;29;20264;-77
2023/04/24 14:27:20;;;;;;;;;;;;;;;;;;4906939;29;19922;-79
2023/04/24 14:29:49;;;;;;;;;;;;;;;;;;4924050;29;19919;-80
2023/04/24 14:32:14;;;;;;;;;;;;;;;;;;4929179;29;19919;-78
2023/04/24 14:34:40;;;;;;;;;;;;;;;;;;4917977;29;19922;-78
2023/04/24 14:37:05;;;;;;;;;;;;;;;;;;4927991;29;19915;-77
2023/04/24 14:39:31;;;;;;;;;;;;;;;;;;4925424;29;19922;-78
2023/04/24 14:41:56;;;;;;;;;;;;;;;;;;4923210;29;19958;-78
2023/04/24 14:44:21;;;;;;;;;;;;;;;;;;4932994;29;19921;-78
2023/04/24 14:46:47;;;;;;;;;;;;;;;;;;4935576;29;19915;-78
2023/04/24 14:49:12;;;;;;;;;;;;;;;;;;4932072;29;20028;-78
2023/04/24 14:51:38;;;;;;;;;;;;;;;;;;4924474;29;19914;-79
2023/04/24 14:54:03;;;;;;;;;;;;;;;;;;4925097;29;20033;-78
2023/04/24 14:56:29;;;;;;;;;;;;;;;;;;4931313;29;20426;-78
2023/04/24 14:58:54;;;;;;;;;;;;;;;;;;4930866;29;19925;-79
2023/04/24 15:01:20;;;;;;;;;;;;;;;;;;4935325;29;20005;-79
2023/04/24 15:03:45;;;;;;;;;;;;;;;;;;4910561;29;19915;-78
2023/04/24 15:06:11;;;;;;;;;;;;;;;;;;4933773;29;20010;-78
2023/04/24 15:08:36;;;;;;;;;;;;;;;;;;4921429;29;19919;-78
2023/04/24 15:11:02;;;;;;;;;;;;;;;;;;4933329;29;19911;-77
2023/04/24 15:13:27;;;;;;;;;;;;;;;;;;4928291;29;20400;-78
2023/04/24 15:15:56;;;;;;;;;;;;;;;;;;4926494;29;20375;-78
2023/04/24 15:18:21;;;;;;;;;;;;;;;;;;4934448;29;19919;-78
2023/04/24 15:20:47;;;;;;;;;;;;;;;;;;4922265;29;19915;-78
2023/04/24 15:23:12;;;;;;;;;;;;;;;;;;4931807;29;20431;-78
2023/04/24 15:25:41;;;;;;;;;;;;;;;;;;4912893;29;19914;-78
2023/04/24 15:28:06;;;;;;;;;;;;;;;;;;4924570;29;19919;-79
2023/04/24 15:30:32;;;;;;;;;;;;;;;;;;4934807;29;20409;-78
2023/04/24 15:32:57;;;;;;;;;;;;;;;;;;4922262;29;19914;-78
2023/04/24 15:35:22;;;;;;;;;;;;;;;;;;4930279;29;19926;-78
2023/04/24 15:37:48;;;;;;;;;;;;;;;;;;4913619;29;19978;-78
2023/04/24 15:40:15;;;;;;;;;;;;;;;;;;4922783;29;19981;-78
2023/04/24 15:42:40;;;;;;;;;;;;;;;;;;4934127;29;19922;-78
2023/04/24 15:45:06;;;;;;;;;;;;;;;;;;4926648;29;20294;-78
2023/04/24 15:47:31;;;;;;;;;;;;;;;;;;4923073;29;20386;-78
2023/04/24 15:49:57;;;;;;;;;;;;;;;;;;4926848;29;19920;-79
2023/04/24 15:52:22;;;;;;;;;;;;;;;;;;4938165;29;19919;-78
2023/04/24 15:54:48;;;;;;;;;;;;;;;;;;4911827;29;19925;-78
2023/04/24 15:57:13;;;;;;;;;;;;;;;;;;4939570;29;20013;-80
2023/04/24 15:59:39;;;;;;;;;;;;;;;;;;4931249;29;19946;-79
2023/04/24 16:02:04;;;;;;;;;;;;;;;;;;4943653;29;20030;-79
2023/04/24 16:04:30;;;;;;;;;;;;;;;;;;4925888;29;19916;-78
2023/04/24 16:06:56;;;;;;;;;;;;;;;;;;4938759;29;19915;-79
2023/04/24 16:09:21;;;;;;;;;;;;;;;;;;4930117;29;19937;-79
2023/04/24 16:11:47;;;;;;;;;;;;;;;;;;4927132;29;20442;-78
2023/04/24 16:14:12;;;;;;;;;;;;;;;;;;4933830;29;20429;-77
2023/04/24 16:16:38;;;;;;;;;;;;;;;;;;4922374;29;20023;-77
2023/04/24 16:19:03;;;;;;;;;;;;;;;;;;4931923;29;19919;-78
2023/04/24 16:21:30;;;;;;;;;;;;;;;;;;4926064;29;19997;-77
2023/04/24 16:23:55;;;;;;;;;;;;;;;;;;4925322;29;20398;-79
2023/04/24 16:26:21;;;;;;;;;;;;;;;;;;4932903;29;20013;-78
2023/04/24 16:28:49;;;;;;;;;;;;;;;;;;4932951;29;19926;-80
2023/04/24 16:31:15;;;;;;;;;;;;;;;;;;4907971;29;19917;-79
2023/04/24 16:33:40;;;;;;;;;;;;;;;;;;4925764;29;19998;-78
2023/04/24 16:36:07;;;;;;;;;;;;;;;;;;4931932;29;19969;-79
2023/04/24 16:38:33;;;;;;;;;;;;;;;;;;4919977;29;20013;-79
2023/04/24 16:40:58;;;;;;;;;;;;;;;;;;4931227;29;20438;-79
2023/04/24 16:43:24;;;;;;;;;;;;;;;;;;4926241;29;19915;-78